createdAt,value
2018-01-18T00:00:37.506Z,5.32
2018-01-18T00:03:05.076Z,5.28
2018-01-18T00:05:33.561Z,5.22
2018-01-18T00:08:01.239Z,5.18
2018-01-18T00:10:28.799Z,5.08
2018-01-18T00:12:56.393Z,5.12
2018-01-18T00:15:23.966Z,5.08
2018-01-18T00:17:51.533Z,5.03
2018-01-18T00:20:19.149Z,4.93
2018-01-18T00:22:46.729Z,4.83
2018-01-18T00:25:14.304Z,4.75
2018-01-18T00:27:41.908Z,4.69
2018-01-18T00:30:09.468Z,4.66
2018-01-18T00:32:37.055Z,4.59
2018-01-18T00:35:04.657Z,4.60
2018-01-18T00:37:32.271Z,4.59
2018-01-18T00:39:59.824Z,4.60
2018-01-18T00:42:27.428Z,4.61
2018-01-18T00:44:54.995Z,4.56
2018-01-18T00:47:22.641Z,4.62
2018-01-18T00:49:50.224Z,4.62
2018-01-18T00:52:17.793Z,4.57
2018-01-18T00:54:45.373Z,4.61
2018-01-18T00:57:12.979Z,4.60
2018-01-18T00:59:40.539Z,4.60
2018-01-18T01:02:08.136Z,4.62
2018-01-18T01:04:35.847Z,4.68
2018-01-18T01:07:03.407Z,4.69
2018-01-18T01:09:30.959Z,4.71
2018-01-18T01:11:58.553Z,4.76
2018-01-18T01:14:26.126Z,4.77
2018-01-18T01:16:53.713Z,4.84
2018-01-18T01:19:21.428Z,4.88
2018-01-18T01:21:48.984Z,4.85
2018-01-18T01:24:16.553Z,4.86
2018-01-18T01:26:44.143Z,4.90
2018-01-18T01:29:11.690Z,4.92
2018-01-18T01:31:39.260Z,4.93
2018-01-18T01:34:06.862Z,4.92
2018-01-18T01:36:34.412Z,4.95
2018-01-18T01:39:01.986Z,4.96
2018-01-18T01:41:29.583Z,5.00
2018-01-18T01:43:57.183Z,5.05
2018-01-18T01:46:24.740Z,5.02
2018-01-18T01:48:52.334Z,4.99
2018-01-18T01:51:19.903Z,4.90
2018-01-18T01:53:47.459Z,4.84
2018-01-18T01:56:15.058Z,4.89
2018-01-18T01:58:42.623Z,4.83
2018-01-18T02:01:10.182Z,4.80
2018-01-18T02:03:37.772Z,4.83
2018-01-18T02:06:05.329Z,4.84
2018-01-18T02:08:32.899Z,4.80
2018-01-18T02:11:00.481Z,4.77
2018-01-18T02:13:28.041Z,4.80
2018-01-18T02:15:55.619Z,4.81
2018-01-18T02:18:23.212Z,4.75
2018-01-18T02:20:50.762Z,4.78
2018-01-18T02:23:18.319Z,4.74
2018-01-18T02:25:45.914Z,4.70
2018-01-18T02:28:13.478Z,4.69
2018-01-18T02:30:41.039Z,4.63
2018-01-18T02:33:08.677Z,4.64
2018-01-18T02:35:36.239Z,4.62
2018-01-18T02:38:03.796Z,4.62
2018-01-18T02:40:31.396Z,4.70
2018-01-18T02:42:58.944Z,4.60
2018-01-18T02:45:26.493Z,4.59
2018-01-18T02:47:54.088Z,4.59
2018-01-18T02:50:21.647Z,4.49
2018-01-18T02:52:49.212Z,4.55
2018-01-18T02:55:16.824Z,4.50
2018-01-18T02:57:44.361Z,4.53
2018-01-18T03:00:11.894Z,4.50
2018-01-18T03:02:39.476Z,4.40
2018-01-18T03:05:07.055Z,4.44
2018-01-18T03:07:34.638Z,4.38
2018-01-18T03:10:02.245Z,4.29
2018-01-18T03:12:29.821Z,4.27
2018-01-18T03:14:57.378Z,4.29
2018-01-18T03:17:24.983Z,4.28
2018-01-18T03:19:52.550Z,4.26
2018-01-18T03:22:20.110Z,4.27
2018-01-18T03:24:47.718Z,4.28
2018-01-18T03:27:15.289Z,4.27
2018-01-18T03:29:42.859Z,4.29
2018-01-18T03:32:10.461Z,4.32
2018-01-18T03:34:38.038Z,4.32
2018-01-18T03:37:05.585Z,4.28
2018-01-18T03:39:33.189Z,4.27
2018-01-18T03:42:00.747Z,4.27
2018-01-18T03:44:28.309Z,4.19
2018-01-18T03:46:55.913Z,4.18
2018-01-18T03:49:23.490Z,4.06
2018-01-18T03:51:51.055Z,4.12
2018-01-18T03:54:18.648Z,4.02
2018-01-18T03:56:46.214Z,4.01
2018-01-18T03:59:13.766Z,3.92
2018-01-18T04:01:41.370Z,4.00
2018-01-18T04:04:08.974Z,4.03
2018-01-18T04:06:36.523Z,3.98
2018-01-18T04:09:04.234Z,3.93
2018-01-18T04:11:31.798Z,3.88
2018-01-18T04:13:59.365Z,3.86
2018-01-18T04:16:26.949Z,3.86
2018-01-18T04:18:54.524Z,3.85
2018-01-18T04:21:22.079Z,3.72
2018-01-18T04:23:49.731Z,3.71
2018-01-18T04:26:17.286Z,3.73
2018-01-18T04:28:44.840Z,3.59
2018-01-18T04:31:12.440Z,3.49
2018-01-18T04:33:39.992Z,3.49
2018-01-18T04:36:07.552Z,3.39
2018-01-18T04:38:35.156Z,3.35
2018-01-18T04:41:02.715Z,3.25
2018-01-18T04:43:30.273Z,3.19
2018-01-18T04:45:57.889Z,3.18
2018-01-18T04:48:25.457Z,3.18
2018-01-18T04:50:53.059Z,3.11
2018-01-18T04:53:20.648Z,3.05
2018-01-18T04:55:48.210Z,2.95
2018-01-18T04:58:15.796Z,2.95
2018-01-18T05:00:43.402Z,2.89
2018-01-18T05:03:10.969Z,2.78
2018-01-18T05:05:38.539Z,2.71
2018-01-18T05:08:06.123Z,2.64
2018-01-18T05:10:33.695Z,2.50
2018-01-18T05:13:01.247Z,2.46
2018-01-18T05:15:28.849Z,2.40
2018-01-18T05:17:56.410Z,2.40
2018-01-18T05:20:23.967Z,2.33
2018-01-18T05:22:51.566Z,2.23
2018-01-18T05:25:19.126Z,2.23
2018-01-18T05:27:46.690Z,2.16
2018-01-18T05:30:14.292Z,2.07
2018-01-18T05:32:41.926Z,2.14
2018-01-18T05:35:09.509Z,2.11
2018-01-18T05:37:37.118Z,2.14
2018-01-18T05:40:04.674Z,2.12
2018-01-18T05:42:32.227Z,2.16
2018-01-18T05:44:59.861Z,2.22
2018-01-18T05:47:27.421Z,2.26
2018-01-18T05:49:54.993Z,2.24
2018-01-18T05:52:22.607Z,2.17
2018-01-18T05:54:50.157Z,2.25
2018-01-18T05:57:17.737Z,2.22
2018-01-18T05:59:45.334Z,2.21
2018-01-18T06:02:12.886Z,2.23
2018-01-18T06:04:40.454Z,2.26
2018-01-18T06:07:08.065Z,2.31
2018-01-18T06:09:35.630Z,2.29
2018-01-18T06:12:03.195Z,2.31
2018-01-18T06:14:30.953Z,2.29
2018-01-18T06:16:58.522Z,2.32
2018-01-18T06:19:26.090Z,2.31
2018-01-18T06:21:53.709Z,2.28
2018-01-18T06:24:21.303Z,2.32
2018-01-18T06:26:48.878Z,2.43
2018-01-18T06:29:16.532Z,2.41
2018-01-18T06:31:44.196Z,2.47
2018-01-18T06:34:11.768Z,2.52
2018-01-18T06:36:39.360Z,2.51
2018-01-18T06:39:06.935Z,2.48
2018-01-18T06:41:34.517Z,2.58
2018-01-18T06:44:02.119Z,2.53
2018-01-18T06:46:29.700Z,2.52
2018-01-18T06:48:57.255Z,2.55
2018-01-18T06:51:24.875Z,2.62
2018-01-18T06:53:52.563Z,2.66
2018-01-18T06:56:20.408Z,2.64
2018-01-18T06:58:48.023Z,2.66
2018-01-18T07:01:15.609Z,2.76
2018-01-18T07:03:43.240Z,2.75
2018-01-18T07:06:10.901Z,2.73
2018-01-18T07:08:38.459Z,2.81
2018-01-18T07:11:06.015Z,2.77
2018-01-18T07:13:33.612Z,2.84
2018-01-18T07:16:01.189Z,2.85
2018-01-18T07:18:28.766Z,2.76
2018-01-18T07:20:56.364Z,2.79
2018-01-18T07:23:23.930Z,2.82
2018-01-18T07:25:51.511Z,2.83
2018-01-18T07:28:19.118Z,2.88
2018-01-18T07:30:46.691Z,2.87
2018-01-18T07:33:14.272Z,2.97
2018-01-18T07:35:41.876Z,3.07
2018-01-18T07:38:09.440Z,3.11
2018-01-18T07:40:37.021Z,3.12
2018-01-18T07:43:04.631Z,3.16
2018-01-18T07:45:32.183Z,3.19
2018-01-18T07:47:59.778Z,3.19
2018-01-18T07:50:27.409Z,3.27
2018-01-18T07:52:54.984Z,3.33
2018-01-18T07:55:22.666Z,3.30
2018-01-18T07:57:50.326Z,3.40
2018-01-18T08:00:17.905Z,3.38
2018-01-18T08:02:51.124Z,3.50
2018-01-18T08:05:18.738Z,3.64
2018-01-18T08:07:46.317Z,3.74
2018-01-18T08:10:13.920Z,3.85
2018-01-18T08:12:41.499Z,3.83
2018-01-18T08:15:09.060Z,3.96
2018-01-18T08:17:36.673Z,3.87
2018-01-18T08:20:04.254Z,3.93
2018-01-18T08:22:31.824Z,4.09
2018-01-18T08:24:59.511Z,4.12
2018-01-18T08:27:27.101Z,4.16
2018-01-18T08:29:54.670Z,4.33
2018-01-18T08:32:22.312Z,4.40
2018-01-18T08:34:50.047Z,4.53
2018-01-18T08:37:17.625Z,4.70
2018-01-18T08:39:45.232Z,4.98
2018-01-18T08:42:12.799Z,4.94
2018-01-18T08:44:40.366Z,5.12
2018-01-18T08:47:07.995Z,5.18
2018-01-18T08:49:35.568Z,5.32
2018-01-18T08:52:03.196Z,5.59
2018-01-18T08:54:30.805Z,5.37
2018-01-18T08:56:58.378Z,5.39
2018-01-18T08:59:25.956Z,5.57
2018-01-18T09:01:53.566Z,5.49
2018-01-18T09:04:21.182Z,5.68
2018-01-18T09:06:48.777Z,5.87
2018-01-18T09:09:16.412Z,5.98
2018-01-18T09:11:43.989Z,6.22
2018-01-18T09:14:11.585Z,6.38
2018-01-18T09:16:39.196Z,6.46
2018-01-18T09:19:06.780Z,6.64
2018-01-18T09:21:34.338Z,6.78
2018-01-18T09:24:01.945Z,6.92
2018-01-18T09:26:29.540Z,7.19
2018-01-18T09:28:57.107Z,7.06
2018-01-18T09:31:24.768Z,6.92
2018-01-18T09:33:52.390Z,6.95
2018-01-18T09:36:19.959Z,6.85
2018-01-18T09:38:47.606Z,6.98
2018-01-18T09:41:15.187Z,6.89
2018-01-18T09:43:42.792Z,7.14
2018-01-18T09:46:10.404Z,7.35
2018-01-18T09:48:37.997Z,7.44
2018-01-18T09:51:05.567Z,7.63
2018-01-18T09:53:33.188Z,7.86
2018-01-18T09:56:00.763Z,8.24
2018-01-18T09:58:28.324Z,8.20
2018-01-18T10:00:55.942Z,7.50
2018-01-18T10:03:23.572Z,7.71
2018-01-18T10:05:51.170Z,7.47
2018-01-18T10:08:18.783Z,7.38
2018-01-18T10:10:46.345Z,7.57
2018-01-18T10:13:13.908Z,7.59
2018-01-18T10:15:41.522Z,7.47
2018-01-18T10:18:09.314Z,7.22
2018-01-18T10:20:36.900Z,7.23
2018-01-18T10:23:04.510Z,7.19
2018-01-18T10:25:32.144Z,7.22
2018-01-18T10:27:59.714Z,7.16
2018-01-18T10:30:27.503Z,6.88
2018-01-18T10:32:55.090Z,7.17
2018-01-18T10:35:22.849Z,7.33
2018-01-18T10:37:50.472Z,7.60
2018-01-18T10:40:18.031Z,7.71
2018-01-18T10:42:45.647Z,8.44
2018-01-18T10:45:13.254Z,9.31
2018-01-18T10:47:40.841Z,10.12
2018-01-18T10:50:08.419Z,10.10
2018-01-18T10:52:36.014Z,10.79
2018-01-18T10:55:03.593Z,11.13
2018-01-18T10:57:31.168Z,10.19
2018-01-18T10:59:58.779Z,10.53
2018-01-18T11:02:26.373Z,10.40
2018-01-18T11:04:53.969Z,11.26
2018-01-18T11:07:21.593Z,10.56
2018-01-18T11:09:49.328Z,10.53
2018-01-18T11:12:16.898Z,9.76
2018-01-18T11:14:44.517Z,9.35
2018-01-18T11:17:12.245Z,9.95
2018-01-18T11:19:39.808Z,11.00
2018-01-18T11:22:07.400Z,11.71
2018-01-18T11:24:34.979Z,12.37
2018-01-18T11:27:02.591Z,12.05
2018-01-18T11:29:30.216Z,12.58
2018-01-18T11:31:57.796Z,12.30
2018-01-18T11:34:25.426Z,12.72
2018-01-18T11:36:53.044Z,12.67
2018-01-18T11:39:20.610Z,11.99
2018-01-18T11:41:48.192Z,11.42
2018-01-18T11:44:15.834Z,11.33
2018-01-18T11:46:43.456Z,11.97
2018-01-18T11:49:11.036Z,12.38
2018-01-18T11:51:38.640Z,12.90
2018-01-18T11:54:06.254Z,13.68
2018-01-18T11:56:33.834Z,13.36
2018-01-18T11:59:01.504Z,12.11
2018-01-18T12:01:29.113Z,11.79
2018-01-18T12:03:56.709Z,11.79
2018-01-18T12:06:24.322Z,11.21
2018-01-18T12:08:51.894Z,11.35
2018-01-18T12:11:19.639Z,11.79
2018-01-18T12:13:47.212Z,12.65
2018-01-18T12:16:14.965Z,13.33
2018-01-18T12:18:42.534Z,12.56
2018-01-18T12:21:10.261Z,11.89
2018-01-18T12:23:37.805Z,11.99
2018-01-18T12:26:05.369Z,11.69
2018-01-18T12:28:32.999Z,11.10
2018-01-18T12:31:00.560Z,10.61
2018-01-18T12:33:28.176Z,10.47
2018-01-18T12:35:55.774Z,10.71
2018-01-18T12:38:23.338Z,11.65
2018-01-18T12:40:50.929Z,12.48
2018-01-18T12:43:18.629Z,12.44
2018-01-18T12:45:46.205Z,13.02
2018-01-18T12:48:13.769Z,12.75
2018-01-18T12:50:41.369Z,12.65
2018-01-18T12:53:08.934Z,12.61
2018-01-18T12:55:36.500Z,12.17
2018-01-18T12:58:04.107Z,11.94
2018-01-18T13:00:31.677Z,12.42
2018-01-18T13:02:59.318Z,12.54
2018-01-18T13:05:26.937Z,12.36
2018-01-18T13:07:54.515Z,11.92
2018-01-18T13:10:22.067Z,11.68
2018-01-18T13:12:49.689Z,11.16
2018-01-18T13:15:17.278Z,11.05
2018-01-18T13:17:48.033Z,10.29
2018-01-18T13:20:15.920Z,10.11
2018-01-18T13:22:43.487Z,9.84
2018-01-18T13:25:11.051Z,10.15
2018-01-18T13:27:38.676Z,10.03
2018-01-18T13:30:06.245Z,10.59
2018-01-18T13:32:33.849Z,10.83
2018-01-18T13:35:01.470Z,11.11
2018-01-18T13:37:29.068Z,10.54
2018-01-18T13:39:56.690Z,10.21
2018-01-18T13:42:24.302Z,9.99
2018-01-18T13:44:51.869Z,9.10
2018-01-18T13:47:19.460Z,9.59
2018-01-18T13:49:47.052Z,9.87
2018-01-18T13:52:14.629Z,9.65
2018-01-18T13:54:42.226Z,10.36
2018-01-18T13:57:09.827Z,10.00
2018-01-18T13:59:37.431Z,9.67
2018-01-18T14:02:05.035Z,9.99
2018-01-18T14:04:32.673Z,10.15
2018-01-18T14:07:00.252Z,10.23
2018-01-18T14:09:27.824Z,9.72
2018-01-18T14:11:55.446Z,10.42
2018-01-18T14:14:23.015Z,9.18
2018-01-18T14:16:50.759Z,9.51
2018-01-18T14:19:18.397Z,9.30
2018-01-18T14:21:45.985Z,9.38
2018-01-18T14:24:13.575Z,8.30
2018-01-18T14:26:41.181Z,7.58
2018-01-18T14:29:08.825Z,7.35
2018-01-18T14:31:36.384Z,6.93
2018-01-18T14:34:03.976Z,6.70
2018-01-18T14:36:31.549Z,6.58
2018-01-18T14:38:59.113Z,6.26
2018-01-18T14:41:26.748Z,6.20
2018-01-18T14:43:54.324Z,6.07
2018-01-18T14:46:21.904Z,5.98
2018-01-18T14:48:49.537Z,5.64
2018-01-18T14:51:17.121Z,5.58
2018-01-18T14:53:44.711Z,5.44
2018-01-18T14:56:12.331Z,5.26
2018-01-18T14:58:39.904Z,5.13
2018-01-18T15:01:07.481Z,5.06
2018-01-18T15:03:35.084Z,4.93
2018-01-18T15:06:02.648Z,4.78
2018-01-18T15:08:30.209Z,4.56
2018-01-18T15:10:57.802Z,4.51
2018-01-18T15:13:26.339Z,4.39
2018-01-18T15:15:53.909Z,4.33
2018-01-18T15:18:21.528Z,4.24
2018-01-18T15:20:49.100Z,4.20
2018-01-18T15:23:16.664Z,4.12
2018-01-18T15:25:44.340Z,4.05
2018-01-18T15:28:11.901Z,4.04
2018-01-18T15:30:39.467Z,3.96
2018-01-18T15:33:07.098Z,3.91
2018-01-18T15:35:34.681Z,3.81
2018-01-18T15:38:02.277Z,3.77
2018-01-18T15:40:29.865Z,3.73
2018-01-18T15:42:57.456Z,3.71
2018-01-18T15:45:25.035Z,3.74
2018-01-18T15:47:52.882Z,3.67
2018-01-18T15:50:20.446Z,3.62
2018-01-18T15:52:48.036Z,3.63
2018-01-18T15:55:15.631Z,3.60
2018-01-18T15:57:43.196Z,3.61
2018-01-18T16:00:10.779Z,3.58
2018-01-18T16:02:38.532Z,3.62
2018-01-18T16:05:06.099Z,3.58
2018-01-18T16:07:33.680Z,3.51
2018-01-18T16:10:01.299Z,3.49
2018-01-18T16:12:28.886Z,3.45
2018-01-18T16:14:56.467Z,3.53
2018-01-18T16:17:24.079Z,3.47
2018-01-18T16:19:51.718Z,3.45
2018-01-18T16:22:19.305Z,3.38
2018-01-18T16:24:46.917Z,3.33
2018-01-18T16:27:14.493Z,3.27
2018-01-18T16:29:42.077Z,3.28
2018-01-18T16:32:09.700Z,3.32
2018-01-18T16:34:37.285Z,3.42
2018-01-18T16:37:04.863Z,3.35
2018-01-18T16:39:32.479Z,3.32
2018-01-18T16:42:00.050Z,3.31
2018-01-18T16:44:27.621Z,3.32
2018-01-18T16:46:55.349Z,3.25
2018-01-18T16:49:22.975Z,3.31
2018-01-18T16:51:50.539Z,3.35
2018-01-18T16:54:18.149Z,3.32
2018-01-18T16:56:45.719Z,3.33
2018-01-18T16:59:13.297Z,3.27
2018-01-18T17:01:40.915Z,3.19
2018-01-18T17:04:08.487Z,3.17
2018-01-18T17:06:36.237Z,3.28
2018-01-18T17:09:03.897Z,3.32
2018-01-18T17:11:31.490Z,3.30
2018-01-18T17:13:59.085Z,3.21
2018-01-18T17:16:26.749Z,3.14
2018-01-18T17:18:54.316Z,3.35
2018-01-18T17:21:21.948Z,3.30
2018-01-18T17:23:49.553Z,3.31
2018-01-18T17:26:17.122Z,3.36
2018-01-18T17:28:44.686Z,3.32
2018-01-18T17:31:12.293Z,3.35
2018-01-18T17:33:39.883Z,3.31
2018-01-18T17:36:07.444Z,3.27
2018-01-18T17:38:35.045Z,3.27
2018-01-18T17:41:03.208Z,3.25
2018-01-18T17:43:30.794Z,3.29
2018-01-18T17:45:58.409Z,3.32
2018-01-18T17:48:25.980Z,3.31
2018-01-18T17:50:53.555Z,3.31
2018-01-18T17:53:21.171Z,3.40
2018-01-18T17:55:48.872Z,3.36
2018-01-18T17:58:16.444Z,3.45
2018-01-18T18:00:44.055Z,3.37
2018-01-18T18:03:11.629Z,3.38
2018-01-18T18:05:39.223Z,3.35
2018-01-18T18:08:06.844Z,3.35
2018-01-18T18:10:34.402Z,3.39
2018-01-18T18:13:01.968Z,3.35
2018-01-18T18:15:29.599Z,3.35
2018-01-18T18:17:57.162Z,3.42
2018-01-18T18:20:24.735Z,3.59
2018-01-18T18:22:52.385Z,3.63
2018-01-18T18:25:19.992Z,3.59
2018-01-18T18:27:47.605Z,3.52
2018-01-18T18:30:15.226Z,3.60
2018-01-18T18:32:42.836Z,3.58
2018-01-18T18:35:10.426Z,3.54
2018-01-18T18:37:38.060Z,3.54
2018-01-18T18:40:05.605Z,3.53
2018-01-18T18:42:33.175Z,3.42
2018-01-18T18:45:00.871Z,3.46
2018-01-18T18:47:28.449Z,3.48
2018-01-18T18:49:56.019Z,3.46
2018-01-18T18:52:23.637Z,3.44
2018-01-18T18:54:51.218Z,3.43
2018-01-18T18:57:18.796Z,3.46
2018-01-18T18:59:46.389Z,3.41
2018-01-18T19:02:13.987Z,3.36
2018-01-18T19:04:41.565Z,3.33
2018-01-18T19:07:09.189Z,3.42
2018-01-18T19:09:36.773Z,3.40
2018-01-18T19:12:04.332Z,3.32
2018-01-18T19:14:31.956Z,3.33
2018-01-18T19:16:59.545Z,3.33
2018-01-18T19:19:27.132Z,3.29
2018-01-18T19:21:54.797Z,3.22
2018-01-18T19:24:22.380Z,3.19
2018-01-18T19:26:49.970Z,3.17
2018-01-18T19:29:17.608Z,3.11
2018-01-18T19:31:45.187Z,3.15
2018-01-18T19:34:12.759Z,3.03
2018-01-18T19:36:40.484Z,2.93
2018-01-18T19:39:08.081Z,2.89
2018-01-18T19:41:35.643Z,2.93
2018-01-18T19:44:03.250Z,2.91
2018-01-18T19:46:30.842Z,2.86
2018-01-18T19:48:58.449Z,2.78
2018-01-18T19:51:26.062Z,2.76
2018-01-18T19:53:53.643Z,2.64
2018-01-18T19:56:21.198Z,2.58
2018-01-18T19:58:48.848Z,2.60
2018-01-18T20:01:16.426Z,2.56
2018-01-18T20:03:44.000Z,2.53
2018-01-18T20:06:11.603Z,2.68
2018-01-18T20:08:39.187Z,2.73
2018-01-18T20:11:06.774Z,2.66
2018-01-18T20:13:34.392Z,2.60
2018-01-18T20:16:02.002Z,2.61
2018-01-18T20:18:30.499Z,2.58
2018-01-18T20:20:58.092Z,2.51
2018-01-18T20:23:25.665Z,2.51
2018-01-18T20:25:53.240Z,2.40
2018-01-18T20:28:20.875Z,2.39
2018-01-18T20:30:48.508Z,2.36
2018-01-18T20:33:16.127Z,2.30
2018-01-18T20:35:43.753Z,2.30
2018-01-18T20:38:11.392Z,2.26
2018-01-18T20:40:38.964Z,2.51
2018-01-18T20:43:06.563Z,2.50
2018-01-18T20:45:34.152Z,2.47
2018-01-18T20:48:01.716Z,2.33
2018-01-18T20:50:29.410Z,2.29
2018-01-18T20:52:56.965Z,2.22
2018-01-18T20:55:24.540Z,2.12
2018-01-18T20:57:52.167Z,2.04
2018-01-18T21:00:19.746Z,2.13
2018-01-18T21:02:53.168Z,2.18
2018-01-18T21:05:20.766Z,2.18
2018-01-18T21:07:48.370Z,2.06
2018-01-18T21:10:16.012Z,1.94
2018-01-18T21:12:43.597Z,1.88
2018-01-18T21:15:11.175Z,1.74
2018-01-18T21:17:38.819Z,1.71
2018-01-18T21:20:06.435Z,1.62
2018-01-18T21:22:34.008Z,1.49
2018-01-18T21:25:01.612Z,1.46
2018-01-18T21:27:29.172Z,1.45
2018-01-18T21:29:56.762Z,1.28
2018-01-18T21:32:24.383Z,1.12
2018-01-18T21:34:51.986Z,0.95
2018-01-18T21:37:19.549Z,0.91
2018-01-18T21:39:47.545Z,0.81
2018-01-18T21:42:15.115Z,0.73
2018-01-18T21:44:42.684Z,0.73
2018-01-18T21:47:10.295Z,0.63
2018-01-18T21:49:37.882Z,0.55
2018-01-18T21:52:05.465Z,0.47
2018-01-18T21:54:33.069Z,0.42
2018-01-18T21:57:00.630Z,0.42
2018-01-18T21:59:28.189Z,0.39
2018-01-18T22:01:55.813Z,0.34
2018-01-18T22:04:23.399Z,0.18
2018-01-18T22:06:50.995Z,0.03
2018-01-18T22:09:18.604Z,-0.02
2018-01-18T22:11:46.197Z,-0.03
2018-01-18T22:14:13.761Z,-0.08
2018-01-18T22:16:41.362Z,-0.19
2018-01-18T22:19:08.923Z,-0.22
2018-01-18T22:21:36.493Z,-0.22
2018-01-18T22:24:04.103Z,-0.17
2018-01-18T22:26:31.695Z,-0.18
2018-01-18T22:28:59.308Z,-0.19
2018-01-18T22:31:26.946Z,-0.26
2018-01-18T22:33:54.533Z,-0.37
2018-01-18T22:36:22.115Z,-0.51
2018-01-18T22:38:49.721Z,-0.54
2018-01-18T22:41:17.306Z,-0.52
2018-01-18T22:43:44.889Z,-0.54
2018-01-18T22:46:12.545Z,-0.61
2018-01-18T22:48:40.140Z,-0.72
2018-01-18T22:51:07.701Z,-0.79
2018-01-18T22:53:35.308Z,-0.85
2018-01-18T22:56:02.892Z,-0.78
2018-01-18T22:58:30.442Z,-0.75
2018-01-18T23:00:58.054Z,-0.74
2018-01-18T23:03:25.624Z,-0.78
2018-01-18T23:05:53.197Z,-0.66
2018-01-18T23:08:20.944Z,-0.65
2018-01-18T23:10:48.509Z,-0.69
2018-01-18T23:13:16.106Z,-0.72
2018-01-18T23:15:43.730Z,-0.81
2018-01-18T23:18:11.299Z,-0.88
2018-01-18T23:20:38.892Z,-0.85
2018-01-18T23:23:06.506Z,-0.84
2018-01-18T23:25:34.063Z,-0.94
2018-01-18T23:28:01.630Z,-0.96
2018-01-18T23:30:29.262Z,-0.99
2018-01-18T23:32:56.839Z,-0.99
2018-01-18T23:35:24.399Z,-1.02
2018-01-18T23:37:51.983Z,-1.11
2018-01-18T23:40:19.561Z,-1.11
2018-01-18T23:42:47.127Z,-1.17
2018-01-18T23:45:14.737Z,-1.20
2018-01-18T23:47:42.314Z,-1.24
2018-01-18T23:50:09.894Z,-1.25
2018-01-18T23:52:37.490Z,-1.31
2018-01-18T23:55:05.063Z,-1.38
2018-01-18T23:57:32.642Z,-1.43
